createdAt,value
2022-11-21T00:03:13.313Z,14.30
2022-11-21T00:08:19.662Z,14.32
2022-11-21T00:13:22.480Z,14.63
2022-11-21T00:18:25.575Z,17.50
2022-11-21T00:23:29.700Z,18.20
2022-11-21T00:28:32.544Z,20.00
2022-11-21T00:33:36.042Z,17.98
2022-11-21T00:38:40.144Z,19.08
2022-11-21T00:43:42.883Z,17.80
2022-11-21T00:48:45.614Z,19.30
2022-11-21T00:53:50.825Z,18.25
2022-11-21T00:58:53.588Z,20.15
2022-11-21T01:03:56.336Z,19.48
2022-11-21T01:09:00.491Z,19.10
2022-11-21T01:14:03.416Z,17.95
2022-11-21T01:19:06.195Z,20.25
2022-11-21T01:24:12.060Z,19.45
2022-11-21T01:29:14.878Z,19.13
2022-11-21T01:34:18.569Z,17.77
2022-11-21T01:39:22.659Z,16.33
2022-11-21T01:44:28.018Z,14.02
2022-11-21T01:49:33.175Z,15.55
2022-11-21T01:54:42.685Z,17.25
2022-11-21T01:59:49.774Z,16.35
2022-11-21T02:04:54.477Z,16.30
2022-11-21T02:10:01.944Z,16.90
2022-11-21T02:15:05.297Z,15.35
2022-11-21T02:20:10.501Z,16.33
2022-11-21T02:25:18.966Z,15.60
2022-11-21T02:30:22.005Z,15.20
2022-11-21T02:35:25.047Z,14.60
2022-11-21T02:40:35.917Z,15.82
2022-11-21T02:45:41.304Z,16.83
2022-11-21T02:50:45.831Z,16.33
2022-11-21T02:55:49.943Z,15.57
2022-11-21T03:00:53.010Z,17.02
2022-11-21T03:05:56.052Z,15.60
2022-11-21T03:11:00.187Z,15.15
2022-11-21T03:16:02.936Z,13.98
2022-11-21T03:21:05.728Z,13.38
2022-11-21T03:26:09.842Z,14.65
2022-11-21T03:31:12.662Z,14.50
2022-11-21T03:36:15.468Z,14.13
2022-11-21T03:41:31.695Z,13.05
2022-11-21T03:46:36.604Z,13.05
2022-11-21T03:51:39.675Z,14.05
2022-11-21T03:56:43.804Z,14.35
2022-11-21T04:01:46.621Z,14.60
2022-11-21T04:06:49.460Z,14.88
2022-11-21T04:11:53.549Z,15.90
2022-11-21T04:16:56.568Z,14.63
2022-11-21T04:21:59.304Z,15.90
2022-11-21T04:27:03.383Z,17.92
2022-11-21T04:32:06.339Z,16.83
2022-11-21T04:37:11.768Z,16.55
2022-11-21T04:42:16.110Z,15.80
2022-11-21T04:47:18.915Z,16.15
2022-11-21T04:52:21.668Z,15.23
2022-11-21T04:57:26.552Z,15.60
2022-11-21T05:02:29.432Z,14.90
2022-11-21T05:07:32.198Z,15.95
2022-11-21T05:12:53.728Z,15.55
2022-11-21T05:17:56.484Z,15.57
2022-11-21T05:22:59.239Z,15.13
2022-11-21T05:28:03.352Z,15.13
2022-11-21T05:33:06.396Z,15.38
2022-11-21T05:38:09.132Z,15.50
2022-11-21T05:43:31.429Z,14.93
2022-11-21T05:48:36.555Z,15.27
2022-11-21T05:53:39.322Z,14.75
2022-11-21T05:58:43.852Z,15.13
2022-11-21T06:03:46.617Z,15.20
2022-11-21T06:08:49.340Z,16.08
2022-11-21T06:13:53.954Z,15.23
2022-11-21T06:18:58.714Z,16.08
2022-11-21T06:24:01.774Z,16.90
2022-11-21T06:29:05.841Z,16.20
2022-11-21T06:34:08.699Z,16.02
2022-11-21T06:39:11.475Z,15.82
2022-11-21T06:44:15.545Z,21.05
2022-11-21T06:49:18.300Z,23.65
2022-11-21T06:54:21.060Z,21.30
2022-11-21T06:59:25.151Z,19.05
2022-11-21T07:04:28.104Z,18.85
2022-11-21T07:09:33.978Z,19.48
2022-11-21T07:14:38.365Z,21.17
2022-11-21T07:19:41.804Z,9.90
2022-11-21T07:24:44.513Z,12.07
2022-11-21T07:29:48.604Z,14.98
2022-11-21T07:34:51.348Z,19.90
2022-11-21T07:39:54.073Z,17.95
2022-11-21T07:44:58.178Z,20.45
2022-11-21T07:50:00.895Z,20.48
2022-11-21T07:55:04.647Z,22.25
2022-11-21T08:00:10.778Z,18.15
2022-11-21T08:05:13.515Z,18.88
2022-11-21T08:10:17.311Z,18.70
2022-11-21T08:15:21.519Z,17.63
2022-11-21T08:20:24.296Z,17.63
2022-11-21T08:25:27.093Z,17.90
2022-11-21T08:30:31.870Z,17.75
2022-11-21T08:35:37.603Z,16.10
2022-11-21T08:40:41.306Z,18.40
2022-11-21T08:45:45.362Z,19.02
2022-11-21T08:50:48.364Z,15.07
2022-11-21T08:55:51.110Z,17.05
2022-11-21T09:00:55.179Z,20.15
2022-11-21T09:05:58.376Z,16.73
2022-11-21T09:11:05.387Z,16.45
2022-11-21T09:16:30.391Z,17.08
2022-11-21T09:21:33.186Z,16.92
2022-11-21T09:26:35.917Z,17.02
2022-11-21T09:31:40.001Z,18.40
2022-11-21T09:36:42.861Z,18.98
2022-11-21T09:41:57.488Z,17.60
2022-11-21T09:47:12.094Z,19.52
2022-11-21T09:52:18.823Z,19.00
2022-11-21T09:57:26.141Z,20.73
2022-11-21T10:02:32.660Z,23.38
2022-11-21T10:07:37.966Z,20.63
2022-11-21T10:12:52.762Z,17.17
2022-11-21T10:18:14.849Z,17.67
2022-11-21T10:23:36.654Z,16.92
2022-11-21T10:28:45.548Z,18.00
2022-11-21T10:33:53.592Z,17.80
2022-11-21T10:39:00.230Z,17.20
2022-11-21T10:44:27.601Z,15.18
2022-11-21T10:49:35.287Z,17.85
2022-11-21T10:55:04.521Z,14.98
2022-11-21T11:00:17.565Z,14.52
2022-11-21T11:05:24.795Z,14.40
2022-11-21T11:10:28.563Z,13.63
2022-11-21T11:15:31.539Z,13.20
2022-11-21T11:20:40.848Z,13.23
2022-11-21T11:25:48.152Z,13.27
2022-11-21T11:30:52.411Z,13.68
2022-11-21T11:36:03.968Z,13.45
2022-11-21T11:41:20.812Z,13.30
2022-11-21T11:47:15.099Z,12.05
2022-11-21T11:52:24.242Z,11.57
2022-11-21T11:57:31.580Z,11.48
2022-11-21T12:02:47.668Z,12.05
2022-11-21T12:13:29.388Z,11.82
2022-11-21T12:18:37.391Z,12.25
2022-11-21T12:23:47.446Z,11.10
2022-11-21T12:29:04.468Z,12.07
2022-11-21T12:34:21.263Z,13.23
2022-11-21T12:39:59.702Z,13.63
2022-11-21T12:45:28.680Z,12.95
2022-11-21T12:51:00.614Z,12.55
2022-11-21T12:56:12.108Z,13.03
2022-11-21T13:01:23.745Z,11.73
2022-11-21T13:06:28.732Z,10.02
2022-11-21T13:11:59.917Z,11.50
2022-11-21T13:17:15.324Z,10.50
2022-11-21T13:22:49.693Z,11.40
2022-11-21T13:27:54.703Z,11.75
2022-11-21T13:32:57.504Z,12.48
2022-11-21T13:38:01.761Z,13.10
2022-11-21T13:43:35.052Z,13.45
2022-11-21T13:49:02.505Z,14.38
2022-11-21T13:54:37.520Z,14.10
2022-11-21T13:59:56.838Z,14.07
2022-11-21T14:05:20.687Z,15.45
2022-11-21T14:10:34.164Z,14.50
2022-11-21T14:15:49.267Z,15.10
2022-11-21T14:20:56.839Z,14.23
2022-11-21T14:26:03.069Z,14.38
2022-11-21T14:31:08.086Z,13.40
2022-11-21T14:36:15.063Z,13.77
2022-11-21T14:41:28.085Z,14.32
2022-11-21T14:46:33.706Z,16.48
2022-11-21T14:51:37.899Z,15.40
2022-11-21T14:56:42.212Z,18.38
2022-11-21T15:01:57.350Z,17.42
2022-11-21T15:07:00.659Z,17.08
2022-11-21T15:12:07.761Z,15.90
2022-11-21T15:17:20.369Z,15.15
2022-11-21T15:22:31.696Z,15.27
2022-11-21T15:27:36.224Z,15.52
2022-11-21T15:33:02.035Z,16.15
2022-11-21T15:38:14.468Z,18.13
2022-11-21T15:48:36.108Z,16.75
2022-11-21T15:53:39.042Z,15.90
2022-11-21T15:58:43.276Z,16.40
2022-11-21T16:03:49.951Z,15.40
2022-11-21T16:08:52.828Z,17.90
2022-11-21T16:13:58.597Z,16.98
2022-11-21T16:19:02.702Z,16.77
2022-11-21T16:24:06.022Z,16.20
2022-11-21T16:29:11.628Z,17.58
2022-11-21T16:34:19.676Z,19.98
2022-11-21T16:39:22.406Z,19.45
2022-11-21T16:44:25.988Z,16.73
2022-11-21T16:49:30.446Z,19.35
2022-11-21T16:54:33.521Z,19.58
2022-11-21T16:59:36.325Z,17.73
2022-11-21T17:04:40.394Z,19.77
2022-11-21T17:09:43.133Z,33.58
2022-11-21T17:14:47.756Z,32.40
2022-11-21T17:19:54.464Z,23.90
2022-11-21T17:24:57.239Z,26.42
2022-11-21T17:30:00.018Z,25.52
2022-11-21T17:35:04.598Z,27.60
2022-11-21T17:40:12.043Z,29.17
2022-11-21T17:45:14.923Z,25.95
2022-11-21T17:50:19.091Z,26.65
2022-11-21T17:55:21.848Z,27.95
2022-11-21T18:00:24.694Z,30.80
2022-11-21T18:05:28.818Z,25.92
2022-11-21T18:10:46.903Z,24.50
2022-11-21T18:15:49.682Z,21.90
2022-11-21T18:20:53.871Z,21.17
2022-11-21T18:25:56.629Z,21.35
2022-11-21T18:31:07.398Z,21.80
2022-11-21T18:36:13.131Z,21.02
2022-11-21T18:41:17.833Z,25.58
2022-11-21T18:46:22.091Z,26.05
2022-11-21T18:51:27.897Z,21.83
2022-11-21T18:56:30.964Z,24.98
2022-11-21T19:01:34.219Z,28.90
2022-11-21T19:06:38.458Z,24.75
2022-11-21T19:11:41.725Z,21.60
2022-11-21T19:16:44.508Z,24.90
2022-11-21T19:21:48.775Z,23.20
2022-11-21T19:26:51.510Z,24.67
2022-11-21T19:31:54.275Z,25.00
2022-11-21T19:36:58.449Z,21.50
2022-11-21T19:42:01.247Z,22.10
2022-11-21T19:47:03.992Z,26.05
2022-11-21T19:52:08.117Z,22.92
2022-11-21T19:57:13.678Z,23.85
2022-11-21T20:02:19.034Z,24.67
2022-11-21T20:07:23.293Z,24.52
2022-11-21T20:12:26.107Z,24.30
2022-11-21T20:17:28.848Z,26.98
2022-11-21T20:22:33.145Z,47.55
2022-11-21T20:27:35.920Z,27.50
2022-11-21T20:32:39.467Z,24.92
2022-11-21T20:37:44.210Z,25.55
2022-11-21T20:42:46.950Z,20.30
2022-11-21T20:47:49.741Z,23.05
2022-11-21T20:53:50.395Z,23.15
2022-11-21T20:58:17.102Z,23.73
2022-11-21T21:03:19.883Z,21.35
2022-11-21T21:08:24.449Z,20.38
2022-11-21T21:13:27.951Z,23.23
2022-11-21T21:18:33.570Z,28.23
2022-11-21T21:23:37.908Z,23.38
2022-11-21T21:28:41.108Z,23.30
2022-11-21T21:33:43.939Z,21.88
2022-11-21T21:38:51.531Z,22.48
2022-11-21T21:43:55.961Z,24.60
2022-11-21T21:48:59.026Z,19.88
2022-11-21T21:54:03.103Z,19.65
2022-11-21T21:59:05.858Z,21.25
2022-11-21T22:04:08.602Z,18.10
2022-11-21T22:09:12.905Z,19.52
2022-11-21T22:14:16.867Z,19.05
2022-11-21T22:19:20.942Z,19.05
2022-11-21T22:24:26.639Z,18.98
2022-11-21T22:29:29.948Z,20.50
2022-11-21T22:34:32.973Z,18.88
2022-11-21T22:39:37.286Z,18.33
2022-11-21T22:44:40.017Z,17.95
2022-11-21T22:49:42.787Z,17.63
2022-11-21T22:54:46.859Z,17.83
2022-11-21T22:59:49.714Z,18.63
2022-11-21T23:04:52.446Z,18.23
2022-11-21T23:09:56.720Z,14.45
2022-11-21T23:15:00.668Z,16.42
2022-11-21T23:20:03.402Z,15.95
2022-11-21T23:25:08.274Z,16.27
2022-11-21T23:30:11.617Z,13.95
2022-11-21T23:35:14.467Z,15.15
2022-11-21T23:40:18.872Z,14.98
2022-11-21T23:45:21.648Z,14.15
2022-11-21T23:50:24.451Z,12.07
2022-11-21T23:55:28.880Z,13.60
